createdAt,value
2022-10-31T00:04:43.872Z,23.27
2022-10-31T00:09:47.825Z,23.26
2022-10-31T00:14:50.421Z,23.22
2022-10-31T00:19:53.084Z,23.17
2022-10-31T00:24:57.040Z,23.17
2022-10-31T00:29:59.647Z,23.13
2022-10-31T00:35:02.335Z,23.11
2022-10-31T00:40:07.700Z,23.07
2022-10-31T00:45:11.217Z,23.07
2022-10-31T00:50:13.890Z,23.01
2022-10-31T00:55:17.895Z,22.96
2022-10-31T01:00:20.927Z,22.93
2022-10-31T01:05:24.325Z,22.90
2022-10-31T01:10:28.364Z,22.86
2022-10-31T01:15:31.140Z,22.83
2022-10-31T01:20:34.975Z,22.79
2022-10-31T01:25:39.154Z,22.79
2022-10-31T01:30:41.778Z,22.73
2022-10-31T01:35:44.360Z,22.75
2022-10-31T01:40:48.311Z,22.71
2022-10-31T01:45:53.471Z,22.69
2022-10-31T01:50:56.152Z,22.66
2022-10-31T01:56:00.527Z,22.66
2022-10-31T02:01:06.719Z,22.62
2022-10-31T02:06:15.047Z,22.59
2022-10-31T02:11:18.984Z,22.57
2022-10-31T02:16:21.748Z,22.55
2022-10-31T02:21:27.000Z,22.52
2022-10-31T02:26:53.212Z,22.50
2022-10-31T02:31:59.704Z,22.47
2022-10-31T02:37:06.085Z,22.44
2022-10-31T02:42:10.043Z,22.45
2022-10-31T02:47:16.194Z,22.44
2022-10-31T02:52:20.215Z,22.42
2022-10-31T02:57:24.807Z,22.39
2022-10-31T03:02:35.472Z,22.39
2022-10-31T03:07:42.140Z,22.37
2022-10-31T03:12:49.591Z,22.32
2022-10-31T03:17:58.173Z,22.32
2022-10-31T03:23:01.045Z,22.26
2022-10-31T03:28:04.511Z,22.24
2022-10-31T03:33:12.555Z,22.20
2022-10-31T03:38:15.681Z,22.15
2022-10-31T03:43:23.986Z,22.16
2022-10-31T03:48:28.013Z,22.11
2022-10-31T03:53:33.068Z,22.10
2022-10-31T03:58:40.209Z,22.08
2022-10-31T04:03:44.446Z,22.05
2022-10-31T04:08:51.177Z,22.00
2022-10-31T04:13:54.887Z,21.99
2022-10-31T04:19:00.295Z,21.99
2022-10-31T04:24:02.956Z,21.95
2022-10-31T04:29:06.926Z,21.91
2022-10-31T04:34:11.018Z,21.89
2022-10-31T04:39:13.686Z,21.85
2022-10-31T04:44:23.205Z,21.84
2022-10-31T04:49:29.829Z,21.81
2022-10-31T04:54:32.513Z,21.79
2022-10-31T04:59:53.756Z,21.77
2022-10-31T05:04:58.059Z,21.75
2022-10-31T05:10:00.718Z,21.73
2022-10-31T05:15:03.377Z,21.71
2022-10-31T05:20:28.304Z,21.68
2022-10-31T05:26:03.400Z,21.67
2022-10-31T05:31:06.300Z,21.66
2022-10-31T05:36:10.630Z,21.66
2022-10-31T05:41:18.755Z,21.63
2022-10-31T05:46:23.597Z,21.63
2022-10-31T05:51:59.953Z,21.62
2022-10-31T05:57:11.659Z,21.60
2022-10-31T06:02:14.388Z,21.60
2022-10-31T06:07:36.914Z,21.63
2022-10-31T06:12:41.587Z,21.61
2022-10-31T06:18:00.373Z,21.65
2022-10-31T06:23:05.721Z,21.63
2022-10-31T06:28:09.788Z,21.63
2022-10-31T06:33:22.958Z,21.64
2022-10-31T06:38:33.662Z,21.63
2022-10-31T06:43:49.266Z,21.96
2022-10-31T06:49:24.125Z,21.64
2022-10-31T06:54:30.415Z,21.62
2022-10-31T06:59:34.512Z,21.60
2022-10-31T07:05:01.284Z,21.60
2022-10-31T07:10:04.535Z,21.59
2022-10-31T07:15:24.715Z,21.57
2022-10-31T07:20:29.220Z,21.57
2022-10-31T07:25:32.293Z,21.57
2022-10-31T07:30:43.742Z,21.60
2022-10-31T07:35:46.853Z,21.58
2022-10-31T07:40:54.953Z,21.58
2022-10-31T07:46:00.465Z,21.58
2022-10-31T07:51:32.195Z,21.56
2022-10-31T07:57:09.716Z,21.61
2022-10-31T08:02:15.321Z,21.64
2022-10-31T08:07:38.160Z,21.64
2022-10-31T08:12:43.430Z,21.62
2022-10-31T08:17:49.845Z,21.62
2022-10-31T08:22:57.657Z,21.06
2022-10-31T08:28:00.819Z,20.62
2022-10-31T08:33:05.849Z,20.42
2022-10-31T08:38:31.738Z,20.07
2022-10-31T08:43:34.461Z,20.14
2022-10-31T08:48:38.515Z,20.55
2022-10-31T08:53:41.385Z,20.77
2022-10-31T08:59:07.038Z,20.91
2022-10-31T09:04:24.287Z,21.01
2022-10-31T09:09:26.971Z,21.08
2022-10-31T09:14:29.691Z,21.10
2022-10-31T09:19:52.375Z,21.18
2022-10-31T09:24:55.139Z,21.24
2022-10-31T09:29:58.339Z,21.25
2022-10-31T09:35:02.395Z,21.28
2022-10-31T09:40:06.023Z,21.31
2022-10-31T09:45:17.715Z,21.33
2022-10-31T09:50:23.732Z,21.38
2022-10-31T09:55:29.742Z,21.43
2022-10-31T10:00:34.207Z,21.43
2022-10-31T10:05:40.990Z,21.47
2022-10-31T10:10:51.696Z,21.50
2022-10-31T10:16:14.495Z,21.55
2022-10-31T10:21:25.022Z,21.57
2022-10-31T10:31:41.607Z,21.63
2022-10-31T10:36:46.720Z,21.66
2022-10-31T10:42:04.278Z,21.71
2022-10-31T10:47:24.789Z,21.74
2022-10-31T10:52:50.529Z,21.77
2022-10-31T10:57:57.805Z,21.82
2022-10-31T11:03:01.098Z,21.85
2022-10-31T11:08:05.944Z,21.82
2022-10-31T11:13:21.666Z,21.67
2022-10-31T11:23:35.000Z,21.64
2022-10-31T11:28:37.801Z,21.62
2022-10-31T11:33:42.597Z,21.53
2022-10-31T11:38:46.717Z,21.48
2022-10-31T11:43:51.489Z,21.49
2022-10-31T11:48:55.456Z,21.50
2022-10-31T11:54:02.775Z,21.47
2022-10-31T11:59:07.111Z,21.47
2022-10-31T12:04:12.430Z,21.49
2022-10-31T12:09:21.338Z,21.57
2022-10-31T12:14:30.352Z,21.64
2022-10-31T12:19:38.160Z,21.59
2022-10-31T12:24:53.149Z,21.65
2022-10-31T12:30:05.201Z,21.76
2022-10-31T12:35:21.999Z,21.85
2022-10-31T12:40:34.026Z,21.93
2022-10-31T12:45:42.499Z,21.92
2022-10-31T12:50:52.803Z,22.00
2022-10-31T12:56:09.798Z,22.05
2022-10-31T13:01:14.488Z,22.11
2022-10-31T13:06:20.444Z,22.20
2022-10-31T13:11:26.985Z,22.33
2022-10-31T13:16:32.842Z,22.42
2022-10-31T13:21:38.401Z,22.48
2022-10-31T13:26:44.136Z,22.46
2022-10-31T13:31:47.062Z,22.51
2022-10-31T13:36:54.081Z,22.55
2022-10-31T13:42:01.804Z,22.56
2022-10-31T13:47:04.680Z,22.59
2022-10-31T13:52:14.344Z,22.61
2022-10-31T13:57:22.129Z,22.61
2022-10-31T14:02:28.563Z,22.63
2022-10-31T14:07:31.475Z,22.65
2022-10-31T14:12:36.511Z,22.65
2022-10-31T14:17:41.742Z,22.71
2022-10-31T14:22:44.480Z,22.72
2022-10-31T14:27:48.936Z,22.73
2022-10-31T14:32:53.683Z,22.75
2022-10-31T14:38:35.116Z,22.78
2022-10-31T14:43:49.206Z,22.78
2022-10-31T14:49:16.031Z,22.81
2022-10-31T14:54:21.678Z,22.85
2022-10-31T14:59:26.461Z,22.86
2022-10-31T15:04:30.236Z,22.87
2022-10-31T15:09:35.088Z,22.87
2022-10-31T15:14:39.131Z,22.89
2022-10-31T15:19:42.155Z,22.89
2022-10-31T15:24:45.021Z,22.93
2022-10-31T15:29:53.319Z,22.93
2022-10-31T15:34:56.918Z,22.93
2022-10-31T15:40:08.579Z,22.94
2022-10-31T15:45:20.797Z,22.94
2022-10-31T15:50:32.919Z,22.93
2022-10-31T15:55:40.151Z,22.96
2022-10-31T16:00:44.793Z,22.99
2022-10-31T16:05:48.498Z,23.01
2022-10-31T16:10:51.517Z,23.05
2022-10-31T16:16:21.282Z,23.07
2022-10-31T16:21:26.504Z,23.06
2022-10-31T16:26:29.389Z,23.03
2022-10-31T16:31:38.897Z,23.11
2022-10-31T16:36:41.698Z,23.12
2022-10-31T16:41:44.948Z,23.17
2022-10-31T16:46:49.154Z,23.15
2022-10-31T16:51:51.801Z,23.18
2022-10-31T16:56:54.515Z,23.19
2022-10-31T17:01:58.687Z,23.22
2022-10-31T17:07:01.440Z,23.22
2022-10-31T17:12:04.223Z,23.23
2022-10-31T17:17:09.314Z,23.24
2022-10-31T17:22:12.632Z,23.25
2022-10-31T17:27:15.489Z,23.26
2022-10-31T17:32:19.621Z,23.22
2022-10-31T17:37:22.290Z,23.25
2022-10-31T17:42:25.052Z,23.29
2022-10-31T17:47:29.277Z,23.31
2022-10-31T17:52:31.927Z,23.30
2022-10-31T17:57:35.714Z,23.33
2022-10-31T18:02:39.935Z,23.33
2022-10-31T18:07:43.026Z,23.37
2022-10-31T18:12:45.930Z,23.37
2022-10-31T18:17:50.077Z,23.36
2022-10-31T18:22:52.741Z,23.35
2022-10-31T18:27:55.559Z,23.38
2022-10-31T18:32:59.666Z,23.37
2022-10-31T18:38:03.387Z,23.40
2022-10-31T18:43:07.123Z,23.35
2022-10-31T18:48:13.583Z,23.35
2022-10-31T18:53:16.316Z,23.40
2022-10-31T18:58:19.175Z,23.42
2022-10-31T19:03:26.197Z,23.40
2022-10-31T19:08:29.171Z,23.36
2022-10-31T19:13:33.290Z,23.44
2022-10-31T19:18:37.509Z,23.43
2022-10-31T19:23:40.453Z,23.44
2022-10-31T19:28:43.491Z,23.45
2022-10-31T19:33:47.619Z,23.46
2022-10-31T19:38:51.637Z,23.45
2022-10-31T19:43:54.470Z,23.48
2022-10-31T19:48:58.734Z,23.47
2022-10-31T19:54:01.609Z,23.43
2022-10-31T19:59:04.682Z,23.39
2022-10-31T20:04:08.716Z,23.45
2022-10-31T20:09:13.574Z,23.48
2022-10-31T20:14:17.505Z,23.45
2022-10-31T20:19:22.117Z,23.47
2022-10-31T20:24:25.078Z,23.50
2022-10-31T20:29:27.818Z,23.48
2022-10-31T20:34:31.955Z,23.46
2022-10-31T20:39:36.595Z,23.48
2022-10-31T20:44:39.382Z,23.49
2022-10-31T20:49:43.399Z,23.50
2022-10-31T20:54:46.227Z,23.48
2022-10-31T20:59:49.960Z,23.48
2022-10-31T21:04:54.074Z,23.51
2022-10-31T21:09:56.806Z,23.50
2022-10-31T21:14:59.770Z,23.45
2022-10-31T21:20:04.527Z,23.42
2022-10-31T21:25:07.802Z,23.48
2022-10-31T21:30:11.036Z,23.47
2022-10-31T21:35:15.137Z,23.40
2022-10-31T21:40:17.904Z,23.44
2022-10-31T21:45:21.277Z,23.47
2022-10-31T21:50:25.272Z,23.46
2022-10-31T21:55:27.985Z,23.47
2022-10-31T22:00:30.725Z,23.47
2022-10-31T22:05:36.009Z,23.45
2022-10-31T22:10:38.712Z,23.47
2022-10-31T22:15:41.417Z,23.46
2022-10-31T22:20:45.567Z,23.40
2022-10-31T22:25:48.371Z,23.42
2022-10-31T22:30:51.106Z,23.45
2022-10-31T22:35:55.380Z,23.47
2022-10-31T22:40:58.753Z,23.47
2022-10-31T22:46:03.583Z,23.48
2022-10-31T22:51:07.818Z,23.45
2022-10-31T22:56:12.016Z,23.48
2022-10-31T23:01:16.066Z,23.49
2022-10-31T23:06:21.430Z,23.42
2022-10-31T23:11:25.079Z,23.37
2022-10-31T23:16:27.736Z,23.30
2022-10-31T23:21:54.391Z,23.29
2022-10-31T23:27:10.419Z,23.22
2022-10-31T23:32:16.507Z,23.20
2022-10-31T23:37:21.345Z,23.15
2022-10-31T23:42:24.478Z,23.11
2022-10-31T23:47:27.173Z,23.07
2022-10-31T23:52:31.170Z,23.07
2022-10-31T23:57:34.013Z,23.06
